Time;durP1;ratioP1;P1;durP2;ratioP2;P2;SDS_P1;SDS_P2;PMS_P1;PMS_P2;Temp;Humidity;BMP_temperature;BMP_pressure;BME280_temperature;BME280_humidity;BME280_pressure;Samples;Min_cycle;Max_cycle;Signal;HPM_P1;HPM_P2
2022/04/11 00:01:17;;;;;;;2.22;0.88;;;4.10;73.10;;;;;;5056735;28;20397;-64
2022/04/11 00:03:44;;;;;;;3.45;1.05;;;4.10;73.00;;;;;;5057986;28;20052;-65
2022/04/11 00:06:11;;;;;;;2.00;0.93;;;4.00;73.00;;;;;;5058022;28;20074;-65
2022/04/11 00:08:44;;;;;;;1.73;0.80;;;3.90;73.20;;;;;;5060377;28;20063;-64
2022/04/11 00:11:11;;;;;;;1.98;1.05;;;4.00;73.20;;;;;;5060758;28;20037;-66
2022/04/11 00:13:39;;;;;;;2.30;1.27;;;3.90;73.40;;;;;;5057771;28;20050;-65
2022/04/11 00:16:07;;;;;;;2.55;1.20;;;3.80;73.60;;;;;;5065031;28;21198;-65
2022/04/11 00:18:34;;;;;;;2.05;0.98;;;3.90;73.40;;;;;;5059986;28;20044;-65
2022/04/11 00:21:01;;;;;;;2.85;1.27;;;3.90;73.40;;;;;;5063556;28;20045;-65
2022/04/11 00:23:28;;;;;;;4.93;1.73;;;3.90;73.40;;;;;;5067161;28;20048;-67
2022/04/11 00:25:55;;;;;;;2.42;0.98;;;3.90;73.40;;;;;;5058943;28;20505;-65
2022/04/11 00:28:22;;;;;;;3.30;1.17;;;3.90;73.40;;;;;;5047594;28;20443;-65
2022/04/11 00:30:51;;;;;;;2.17;1.13;;;3.90;73.30;;;;;;5067204;28;20044;-64
2022/04/11 00:33:18;;;;;;;3.38;1.45;;;3.90;73.40;;;;;;5065352;28;20560;-64
2022/04/11 00:35:46;;;;;;;4.60;1.50;;;3.90;73.40;;;;;;5049966;28;20474;-65
2022/04/11 00:38:13;;;;;;;5.07;1.73;;;3.80;73.50;;;;;;5062271;28;20048;-64
2022/04/11 00:40:41;;;;;;;3.40;1.52;;;3.90;73.60;;;;;;5060360;28;20444;-67
2022/04/11 00:43:08;;;;;;;1.90;1.02;;;3.80;73.50;;;;;;5057673;28;20056;-65
2022/04/11 00:45:35;;;;;;;3.95;1.50;;;3.70;73.80;;;;;;5053600;28;20040;-65
2022/04/11 00:48:04;;;;;;;3.47;1.35;;;3.70;74.10;;;;;;5043874;28;20044;-66
2022/04/11 00:50:31;;;;;;;2.67;1.45;;;3.70;74.10;;;;;;5064425;28;20040;-64
2022/04/11 00:53:00;;;;;;;2.75;1.38;;;3.80;73.80;;;;;;5042235;28;20437;-64
2022/04/11 00:55:29;;;;;;;2.60;1.10;;;3.80;73.70;;;;;;5060448;28;20371;-66
2022/04/11 00:57:57;;;;;;;3.83;1.10;;;3.70;73.80;;;;;;5063090;28;20044;-65
2022/04/11 01:00:24;;;;;;;4.25;1.63;;;3.70;73.80;;;;;;5057492;28;20037;-64
2022/04/11 01:02:52;;;;;;;2.03;1.10;;;3.70;73.70;;;;;;5059730;28;20383;-66
2022/04/11 01:05:20;;;;;;;1.30;1.00;;;3.70;73.90;;;;;;5060772;28;20165;-66
2022/04/11 01:07:48;;;;;;;4.53;1.70;;;3.70;73.80;;;;;;5063439;28;20128;-66
2022/04/11 01:10:16;;;;;;;3.42;1.50;;;3.60;73.90;;;;;;5045272;28;20842;-65
2022/04/11 01:12:43;;;;;;;3.22;1.50;;;3.70;74.00;;;;;;5067573;28;20052;-64
2022/04/11 01:15:13;;;;;;;4.60;1.33;;;3.60;74.00;;;;;;5047501;28;20055;-65
2022/04/11 01:17:41;;;;;;;2.70;1.17;;;3.70;74.10;;;;;;5067939;28;20494;-65
2022/04/11 01:20:10;;;;;;;3.33;1.20;;;3.70;74.10;;;;;;5050647;28;20049;-65
2022/04/11 01:22:39;;;;;;;3.53;1.58;;;3.70;74.20;;;;;;5066966;28;20085;-66
2022/04/11 01:25:07;;;;;;;3.47;1.63;;;3.60;74.30;;;;;;5059232;28;20490;-65
2022/04/11 01:27:34;;;;;;;2.70;1.38;;;3.60;74.50;;;;;;5069857;28;20060;-66
2022/04/11 01:30:02;;;;;;;4.30;1.15;;;3.60;74.50;;;;;;5068087;28;20139;-66
2022/04/11 01:32:35;;;;;;;3.58;1.67;;;3.60;74.60;;;;;;5049851;28;20490;-64
2022/04/11 01:35:03;;;;;;;5.40;1.65;;;3.60;74.40;;;;;;5043174;28;20052;-65
2022/04/11 01:37:30;;;;;;;3.13;1.33;;;3.60;74.30;;;;;;5055504;28;20510;-65
2022/04/11 01:39:59;;;;;;;3.17;1.55;;;3.70;74.30;;;;;;5045108;28;23695;-65
2022/04/11 01:42:26;;;;;;;2.63;1.33;;;3.70;74.40;;;;;;5063317;28;20036;-64
2022/04/11 01:44:53;;;;;;;3.65;1.83;;;3.70;74.30;;;;;;5062072;28;20046;-66
2022/04/11 01:47:20;;;;;;;3.03;1.30;;;3.60;74.30;;;;;;5048060;28;20143;-65
2022/04/11 01:49:47;;;;;;;2.70;1.45;;;3.60;74.50;;;;;;5050404;28;20506;-67
2022/04/11 01:52:14;;;;;;;2.05;1.23;;;3.60;74.50;;;;;;5047939;28;20052;-65
2022/04/11 01:54:41;;;;;;;2.30;1.27;;;3.60;74.50;;;;;;5045710;28;20138;-66
2022/04/11 01:57:10;;;;;;;2.53;1.33;;;3.50;74.70;;;;;;5047719;28;20524;-65
2022/04/11 01:59:37;;;;;;;3.97;1.70;;;3.50;74.90;;;;;;5045977;28;20055;-64
2022/04/11 02:02:04;;;;;;;2.83;1.30;;;3.50;75.00;;;;;;5040323;28;20045;-66
2022/04/11 02:04:32;;;;;;;0.82;0.70;;;3.50;74.90;;;;;;5057689;28;20128;-65
2022/04/11 02:06:59;;;;;;;3.00;1.55;;;3.50;74.80;;;;;;5043209;28;20102;-64
2022/04/11 02:09:27;;;;;;;5.22;1.88;;;3.50;74.70;;;;;;5068464;28;20056;-66
2022/04/11 02:11:54;;;;;;;1.77;1.10;;;3.50;74.70;;;;;;5047745;28;20037;-65
2022/04/11 02:14:22;;;;;;;2.55;1.35;;;3.50;74.70;;;;;;5045972;28;20044;-64
2022/04/11 02:16:49;;;;;;;3.17;1.23;;;3.50;74.70;;;;;;5065252;28;20055;-65
2022/04/11 02:19:16;;;;;;;2.50;0.90;;;3.50;74.70;;;;;;5049167;28;20492;-65
2022/04/11 02:21:44;;;;;;;2.53;1.30;;;3.50;74.70;;;;;;5048403;28;20414;-65
2022/04/11 02:24:11;;;;;;;3.95;1.40;;;3.40;74.90;;;;;;5066717;28;20052;-64
2022/04/11 02:26:38;;;;;;;3.10;1.30;;;3.50;74.70;;;;;;5066959;28;20036;-65
2022/04/11 02:29:05;;;;;;;2.40;1.40;;;3.40;74.70;;;;;;5046293;28;20080;-64
2022/04/11 02:31:34;;;;;;;4.95;1.85;;;3.40;75.00;;;;;;5045669;28;20052;-66
2022/04/11 02:34:01;;;;;;;3.65;1.30;;;3.40;75.00;;;;;;5038829;28;20502;-65
2022/04/11 02:36:28;;;;;;;2.53;1.48;;;3.40;75.00;;;;;;5043011;28;20056;-64
2022/04/11 02:38:55;;;;;;;3.08;1.08;;;3.40;75.00;;;;;;5038498;28;20109;-65
2022/04/11 02:41:22;;;;;;;3.83;1.58;;;3.40;75.00;;;;;;5042131;28;20059;-66
2022/04/11 02:43:51;;;;;;;2.85;1.60;;;3.40;75.10;;;;;;5044134;28;21805;-65
2022/04/11 02:46:20;;;;;;;2.30;1.33;;;3.30;75.20;;;;;;5038159;28;20044;-66
2022/04/11 02:48:49;;;;;;;2.17;1.15;;;3.30;75.20;;;;;;5057943;28;20553;-65
2022/04/11 02:51:29;;;;;;;4.78;1.45;;;3.20;75.30;;;;;;5062389;28;20489;-65
2022/04/11 02:54:07;;;;;;;5.03;1.20;;;3.30;75.20;;;;;;5047649;28;20056;-64
2022/04/11 02:56:37;;;;;;;2.47;1.27;;;3.30;75.20;;;;;;5041572;28;20045;-65
2022/04/11 02:59:05;;;;;;;2.50;1.48;;;3.30;75.20;;;;;;5043898;28;20041;-65
2022/04/11 03:01:34;;;;;;;1.92;1.17;;;3.30;75.40;;;;;;5032913;28;20072;-67
2022/04/11 03:04:02;;;;;;;3.13;1.60;;;3.30;75.30;;;;;;5042128;28;20068;-64
2022/04/11 03:06:45;;;;;;;2.15;0.95;;;3.30;75.50;;;;;;5041844;28;20064;-65
2022/04/11 03:09:12;;;;;;;4.88;1.80;;;3.30;75.60;;;;;;5037075;28;20132;-64
2022/04/11 03:11:39;;;;;;;2.60;1.27;;;3.20;75.70;;;;;;5043387;28;21097;-64
2022/04/11 03:14:07;;;;;;;5.03;1.80;;;3.20;75.80;;;;;;5052894;28;20051;-65
2022/04/11 03:16:36;;;;;;;2.88;1.40;;;3.20;75.80;;;;;;5057568;28;20048;-65
2022/04/11 03:19:05;;;;;;;3.58;1.50;;;3.20;76.00;;;;;;5040914;28;20052;-65
2022/04/11 03:21:32;;;;;;;3.92;1.42;;;3.20;76.10;;;;;;5042580;28;20048;-65
2022/04/11 03:24:07;;;;;;;3.95;1.45;;;3.10;76.20;;;;;;5042130;28;20049;-65
2022/04/11 03:26:34;;;;;;;3.08;1.60;;;3.20;75.90;;;;;;5062141;28;20402;-64
2022/04/11 03:29:04;;;;;;;5.68;1.67;;;3.20;75.80;;;;;;5042240;28;20072;-63
2022/04/11 03:31:31;;;;;;;2.35;1.30;;;3.20;75.80;;;;;;5042863;28;20190;-64
2022/04/11 03:33:58;;;;;;;3.17;1.60;;;3.20;75.80;;;;;;5060305;28;20480;-65
2022/04/11 03:36:27;;;;;;;3.17;1.83;;;3.20;75.90;;;;;;5054016;28;20048;-65
2022/04/11 03:38:55;;;;;;;4.97;1.60;;;3.20;75.90;;;;;;5041344;28;20056;-65
2022/04/11 03:41:25;;;;;;;3.00;1.50;;;3.20;75.90;;;;;;5054352;28;20135;-68
2022/04/11 03:43:57;;;;;;;6.78;1.67;;;3.20;76.00;;;;;;5033248;28;20044;-66
2022/04/11 03:46:24;;;;;;;3.97;1.85;;;3.20;76.10;;;;;;5040987;28;20041;-64
2022/04/11 03:48:51;;;;;;;3.00;1.52;;;3.20;76.20;;;;;;5062748;28;20529;-66
2022/04/11 03:51:20;;;;;;;2.28;1.33;;;3.20;76.10;;;;;;5048094;28;20415;-65
2022/04/11 03:53:49;;;;;;;4.68;1.52;;;3.10;76.10;;;;;;5045591;28;20051;-65
2022/04/11 03:56:17;;;;;;;2.67;1.23;;;3.20;76.10;;;;;;5047182;28;20044;-66
2022/04/11 03:58:44;;;;;;;4.70;1.65;;;3.10;76.10;;;;;;5065767;28;20184;-65
2022/04/11 04:01:12;;;;;;;2.05;1.33;;;3.10;76.30;;;;;;5039213;28;20107;-66
2022/04/11 04:03:39;;;;;;;2.67;1.75;;;3.10;76.20;;;;;;5052355;28;20095;-65
2022/04/11 04:06:10;;;;;;;;;;;3.20;76.00;;;;;;5048140;28;20051;-65
2022/04/11 04:08:41;;;;;;;3.15;1.40;;;3.10;76.00;;;;;;5048566;28;19950;-65
2022/04/11 04:11:21;;;;;;;2.53;1.30;;;3.10;76.10;;;;;;5063989;28;20044;-66
2022/04/11 04:14:01;;;;;;;2.88;1.27;;;3.20;76.00;;;;;;5063756;28;20375;-64
2022/04/11 04:16:30;;;;;;;2.10;1.20;;;3.20;76.00;;;;;;5043645;28;20087;-66
2022/04/11 04:19:02;;;;;;;4.63;2.47;;;3.20;75.90;;;;;;5050042;28;20060;-65
2022/04/11 04:21:30;;;;;;;3.20;1.55;;;3.10;76.10;;;;;;5043350;28;20125;-65
2022/04/11 04:23:57;;;;;;;2.97;1.45;;;3.10;76.20;;;;;;5054410;28;20058;-66
2022/04/11 04:26:28;;;;;;;3.45;1.70;;;3.00;76.30;;;;;;5038033;28;20041;-65
2022/04/11 04:28:55;;;;;;;3.90;1.70;;;3.10;76.10;;;;;;5039953;28;20498;-64
2022/04/11 04:31:26;;;;;;;2.65;1.58;;;3.10;76.00;;;;;;5040192;28;20049;-65
2022/04/11 04:33:53;;;;;;;2.65;1.50;;;3.10;76.00;;;;;;5047128;28;20418;-64
2022/04/11 04:36:21;;;;;;;2.78;1.30;;;3.10;76.20;;;;;;5050989;28;20506;-66
2022/04/11 04:38:49;;;;;;;3.50;1.50;;;3.00;76.20;;;;;;5051886;28;20052;-65
2022/04/11 04:41:16;;;;;;;4.60;1.70;;;3.00;76.20;;;;;;5062301;28;20063;-64
2022/04/11 04:43:44;;;;;;;2.15;1.00;;;3.00;76.30;;;;;;5047514;28;20142;-66
2022/04/11 04:46:11;;;;;;;3.78;1.85;;;3.00;76.40;;;;;;5048189;28;20045;-64
2022/04/11 04:48:44;;;;;;;3.20;1.30;;;3.00;76.50;;;;;;5048332;28;20102;-64
2022/04/11 04:51:11;;;;;;;3.83;1.40;;;3.00;76.50;;;;;;5069442;28;20037;-64
2022/04/11 04:53:47;;;;;;;3.95;2.42;;;3.10;76.40;;;;;;5053684;28;20568;-66
2022/04/11 04:56:14;;;;;;;2.83;1.55;;;3.10;76.30;;;;;;5054751;28;20110;-66
2022/04/11 04:58:46;;;;;;;2.60;1.48;;;3.10;76.20;;;;;;5070711;28;20048;-64
2022/04/11 05:01:13;;;;;;;2.90;1.93;;;3.00;76.30;;;;;;5049059;28;20045;-67
2022/04/11 05:03:41;;;;;;;4.45;1.45;;;3.00;76.50;;;;;;5064952;28;20471;-67
2022/04/11 05:06:09;;;;;;;4.45;1.70;;;3.00;76.70;;;;;;5068692;28;20135;-66
2022/04/11 05:08:37;;;;;;;2.90;1.50;;;3.00;76.60;;;;;;5052936;28;20115;-65
2022/04/11 05:11:04;;;;;;;3.50;1.38;;;3.00;76.80;;;;;;5068136;28;20094;-65
2022/04/11 05:13:31;;;;;;;3.05;1.60;;;3.00;76.90;;;;;;5053649;28;20691;-64
2022/04/11 05:16:00;;;;;;;3.45;2.00;;;2.90;77.00;;;;;;5050572;28;20056;-66
2022/04/11 05:18:28;;;;;;;1.95;1.17;;;3.00;77.00;;;;;;5052868;28;20040;-65
2022/04/11 05:20:57;;;;;;;4.93;1.98;;;3.00;76.90;;;;;;5053487;28;20048;-65
2022/04/11 05:23:26;;;;;;;3.75;1.42;;;3.00;77.00;;;;;;5051729;28;20129;-66
2022/04/11 05:25:56;;;;;;;4.13;1.50;;;2.90;77.10;;;;;;5053827;28;20048;-65
2022/04/11 05:28:24;;;;;;;4.70;1.40;;;3.00;77.00;;;;;;5053740;28;20049;-65
2022/04/11 05:30:58;;;;;;;2.67;1.42;;;3.10;76.90;;;;;;5067714;28;20133;-65
2022/04/11 05:33:27;;;;;;;6.07;1.60;;;3.10;76.60;;;;;;5047884;28;20071;-65
2022/04/11 05:35:56;;;;;;;6.30;1.60;;;3.10;76.80;;;;;;5050335;28;20094;-64
2022/04/11 05:38:23;;;;;;;2.53;1.35;;;3.00;76.90;;;;;;5067069;28;20947;-65
2022/04/11 05:40:52;;;;;;;2.58;1.20;;;3.10;76.90;;;;;;5048733;28;20052;-66
2022/04/11 05:43:27;;;;;;;2.17;1.25;;;3.10;76.70;;;;;;5047473;28;20052;-65
2022/04/11 05:45:55;;;;;;;3.10;1.92;;;3.20;76.70;;;;;;5060909;28;20183;-65
2022/04/11 05:48:22;;;;;;;3.47;1.52;;;3.10;76.90;;;;;;5044511;28;20056;-64
2022/04/11 05:50:51;;;;;;;2.65;1.42;;;3.10;77.00;;;;;;5040319;28;20051;-64
2022/04/11 05:53:19;;;;;;;3.47;2.00;;;3.10;77.00;;;;;;5055607;28;20044;-64
2022/04/11 05:55:46;;;;;;;3.40;1.08;;;3.10;76.90;;;;;;5056075;28;20049;-65
2022/04/11 05:58:15;;;;;;;2.28;1.38;;;3.20;76.90;;;;;;5048860;28;20067;-65
2022/04/11 06:00:42;;;;;;;2.72;1.58;;;3.30;76.80;;;;;;5046206;28;20056;-64
2022/04/11 06:03:10;;;;;;;3.03;1.85;;;3.30;76.80;;;;;;5051530;28;20398;-66
2022/04/11 06:05:38;;;;;;;4.97;1.70;;;;;;;;;;5051141;28;20044;-64
2022/04/11 06:08:07;;;;;;;2.47;1.02;;;3.30;77.00;;;;;;5052243;28;20144;-65
2022/04/11 06:10:38;;;;;;;3.03;1.33;;;3.30;77.00;;;;;;5066932;28;20139;-65
2022/04/11 06:13:06;;;;;;;3.00;1.20;;;3.40;77.00;;;;;;5042870;28;20060;-65
2022/04/11 06:15:33;;;;;;;2.22;1.27;;;3.50;77.00;;;;;;5067407;28;20041;-65
2022/04/11 06:18:00;;;;;;;2.30;1.27;;;3.50;77.10;;;;;;5069318;28;20490;-65
2022/04/11 06:20:27;;;;;;;1.70;1.00;;;3.60;77.10;;;;;;5067803;28;20051;-63
2022/04/11 06:22:54;;;;;;;1.63;0.90;;;3.70;76.90;;;;;;5068611;28;20072;-65
2022/04/11 06:25:23;;;;;;;3.60;1.52;;;3.70;76.80;;;;;;5069432;28;20342;-65
2022/04/11 06:27:50;;;;;;;2.60;1.50;;;3.80;76.80;;;;;;5045579;28;20045;-65
2022/04/11 06:30:17;;;;;;;3.15;1.67;;;3.90;76.70;;;;;;5052528;28;20098;-65
2022/04/11 06:32:45;;;;;;;5.97;1.88;;;3.90;76.90;;;;;;5052957;28;20055;-66
2022/04/11 06:35:13;;;;;;;2.95;1.52;;;4.00;76.90;;;;;;5049943;28;20139;-67
2022/04/11 06:37:41;;;;;;;3.70;1.73;;;4.20;76.70;;;;;;5050851;28;20040;-66
2022/04/11 06:40:09;;;;;;;6.63;1.80;;;4.30;76.30;;;;;;5052293;28;20175;-66
2022/04/11 06:42:39;;;;;;;5.50;1.73;;;4.40;76.20;;;;;;5054604;28;20044;-65
2022/04/11 06:45:14;;;;;;;3.40;1.88;;;4.60;76.00;;;;;;5054184;28;20657;-64
2022/04/11 06:47:42;;;;;;;4.07;1.85;;;4.60;75.90;;;;;;5042346;28;20135;-65
2022/04/11 06:50:10;;;;;;;4.03;1.70;;;4.70;75.70;;;;;;5046266;28;20050;-65
2022/04/11 06:52:37;;;;;;;5.07;1.77;;;4.90;75.30;;;;;;5057785;28;20043;-67
2022/04/11 06:55:05;;;;;;;3.72;1.73;;;5.00;75.40;;;;;;5062869;28;20504;-65
2022/04/11 06:57:32;;;;;;;2.85;1.27;;;5.10;75.00;;;;;;5059811;28;20448;-66
2022/04/11 07:00:01;;;;;;;4.72;1.80;;;5.20;75.00;;;;;;5059371;28;20119;-65
2022/04/11 07:02:28;;;;;;;3.05;1.50;;;5.30;74.80;;;;;;5055951;28;20047;-65
2022/04/11 07:04:55;;;;;;;3.78;1.27;;;5.40;74.70;;;;;;5060177;28;20588;-64
2022/04/11 07:07:22;;;;;;;4.10;2.00;;;5.50;75.20;;;;;;5057653;28;20174;-64
2022/04/11 07:09:49;;;;;;;3.33;1.48;;;5.70;74.90;;;;;;5059465;28;20049;-64
2022/04/11 07:12:16;;;;;;;3.83;1.98;;;5.70;74.90;;;;;;5059132;28;20047;-65
2022/04/11 07:14:43;;;;;;;4.80;1.77;;;5.80;74.80;;;;;;5060831;28;20127;-65
2022/04/11 07:17:12;;;;;;;4.97;1.58;;;5.90;74.50;;;;;;5058670;28;20074;-65
2022/04/11 07:19:38;;;;;;;3.38;1.60;;;6.10;74.40;;;;;;5060446;28;20061;-65
2022/04/11 07:22:06;;;;;;;2.72;1.60;;;6.20;74.10;;;;;;5041632;28;20041;-66
2022/04/11 07:24:36;;;;;;;5.32;1.77;;;6.30;73.80;;;;;;5061261;28;20045;-66
2022/04/11 07:27:05;;;;;;;4.25;1.55;;;6.40;73.60;;;;;;5058364;28;20421;-65
2022/04/11 07:29:32;;;;;;;2.22;1.42;;;6.60;73.00;;;;;;5061504;28;20047;-65
2022/04/11 07:31:59;;;;;;;6.75;2.17;;;6.70;73.30;;;;;;5061828;28;20047;-65
2022/04/11 07:34:27;;;;;;;3.55;1.55;;;6.90;72.70;;;;;;5059704;28;20132;-65
2022/04/11 07:36:54;;;;;;;4.57;1.85;;;7.00;72.40;;;;;;5059323;28;20478;-66
2022/04/11 07:39:23;;;;;;;3.70;1.90;;;7.10;72.70;;;;;;5060324;28;20051;-65
2022/04/11 07:41:50;;;;;;;4.20;2.05;;;7.20;72.00;;;;;;5060662;28;20039;-65
2022/04/11 07:44:17;;;;;;;4.13;1.90;;;7.40;72.00;;;;;;5056813;28;21663;-65
2022/04/11 07:46:44;;;;;;;3.90;1.60;;;7.50;71.40;;;;;;5061019;28;20109;-65
2022/04/11 07:49:11;;;;;;;4.50;1.95;;;7.70;71.30;;;;;;5061974;28;20039;-64
2022/04/11 07:51:40;;;;;;;5.35;1.90;;;7.80;70.80;;;;;;5055093;28;20041;-65
2022/04/11 07:54:07;;;;;;;6.65;1.90;;;7.90;70.60;;;;;;5043722;28;21082;-65
2022/04/11 07:56:34;;;;;;;4.25;1.80;;;8.10;70.40;;;;;;5060579;28;20513;-65
2022/04/11 07:59:01;;;;;;;5.20;1.80;;;8.20;69.80;;;;;;5059648;28;20051;-65
2022/04/11 08:01:29;;;;;;;3.25;1.40;;;8.30;69.90;;;;;;5059002;28;20087;-72
2022/04/11 08:03:56;;;;;;;6.40;1.92;;;8.40;69.70;;;;;;5058367;28;20055;-73
2022/04/11 08:06:23;;;;;;;5.53;1.80;;;8.60;69.60;;;;;;5059198;28;20052;-72
2022/04/11 08:08:51;;;;;;;6.85;1.83;;;8.70;68.80;;;;;;5058362;28;20045;-73
2022/04/11 08:11:19;;;;;;;2.88;1.67;;;8.80;68.60;;;;;;5060784;28;21322;-72
2022/04/11 08:13:46;;;;;;;3.38;1.40;;;8.90;68.40;;;;;;5061114;28;20060;-73
2022/04/11 08:16:13;;;;;;;3.45;2.17;;;9.00;68.70;;;;;;5058734;28;20044;-73
2022/04/11 08:18:40;;;;;;;3.75;1.40;;;9.20;68.50;;;;;;5062745;28;20106;-73
2022/04/11 08:21:07;;;;;;;4.65;1.20;;;9.30;67.50;;;;;;5060115;28;20045;-72
2022/04/11 08:23:34;;;;;;;4.63;1.42;;;9.40;67.80;;;;;;5059232;28;20494;-73
2022/04/11 08:26:02;;;;;;;2.70;0.93;;;9.50;67.90;;;;;;5059168;28;20080;-73
2022/04/11 08:28:29;;;;;;;3.00;1.25;;;9.60;67.50;;;;;;5045439;28;20375;-73
2022/04/11 08:30:56;;;;;;;2.72;1.50;;;9.70;67.60;;;;;;5059489;28;20553;-72
2022/04/11 08:33:23;;;;;;;5.63;2.05;;;9.80;67.00;;;;;;5061647;28;20044;-73
2022/04/11 08:35:50;;;;;;;5.05;1.50;;;9.80;67.40;;;;;;5057205;28;20486;-73
2022/04/11 08:38:17;;;;;;;2.83;1.60;;;10.00;66.70;;;;;;5059695;28;20520;-71
2022/04/11 08:40:45;;;;;;;2.92;1.08;;;10.00;66.80;;;;;;5055306;28;20048;-71
2022/04/11 08:43:14;;;;;;;4.18;1.40;;;10.10;66.00;;;;;;5054523;28;20048;-71
2022/04/11 08:45:41;;;;;;;3.92;1.30;;;10.20;66.60;;;;;;5058324;28;20045;-71
2022/04/11 08:48:08;;;;;;;3.75;1.27;;;10.30;65.80;;;;;;5058241;28;20048;-70
2022/04/11 08:50:35;;;;;;;4.03;1.25;;;10.40;65.40;;;;;;5057614;28;20384;-70
2022/04/11 08:53:03;;;;;;;3.30;1.35;;;10.50;65.40;;;;;;5059304;28;20609;-71
2022/04/11 08:55:30;;;;;;;3.42;1.35;;;10.60;65.40;;;;;;5059930;28;20079;-71
2022/04/11 08:57:58;;;;;;;3.08;1.20;;;10.70;64.50;;;;;;5059350;28;20551;-71
2022/04/11 09:00:27;;;;;;;2.35;1.10;;;10.70;64.10;;;;;;5058230;28;20135;-71
2022/04/11 09:02:55;;;;;;;2.17;0.93;;;10.80;63.70;;;;;;5057214;28;20052;-71
2022/04/11 09:05:25;;;;;;;2.50;1.23;;;10.90;62.60;;;;;;5058748;28;20048;-71
2022/04/11 09:07:54;;;;;;;2.92;1.02;;;11.00;62.80;;;;;;5058837;28;20604;-72
2022/04/11 09:10:22;;;;;;;2.55;0.90;;;11.10;62.90;;;;;;5059159;28;20504;-71
2022/04/11 09:12:51;;;;;;;4.10;0.90;;;11.10;61.10;;;;;;5059549;28;20463;-70
2022/04/11 09:15:19;;;;;;;2.83;1.13;;;11.30;60.60;;;;;;5057487;28;20075;-73
2022/04/11 09:17:48;;;;;;;3.10;0.93;;;11.30;59.20;;;;;;5056899;28;20048;-72
2022/04/11 09:20:16;;;;;;;4.32;1.02;;;11.40;59.90;;;;;;5064533;28;20050;-72
2022/04/11 09:22:44;;;;;;;5.85;1.35;;;11.50;58.40;;;;;;5061857;28;20060;-72
2022/04/11 09:25:13;;;;;;;2.08;0.80;;;11.50;58.60;;;;;;5059667;28;20166;-71
2022/04/11 09:27:41;;;;;;;4.10;1.08;;;11.70;58.20;;;;;;5063964;28;20505;-72
2022/04/11 09:30:26;;;;;;;2.55;1.30;;;11.70;57.20;;;;;;5065776;28;20044;-70
2022/04/11 09:33:02;;;;;;;2.35;0.80;;;11.80;56.10;;;;;;5059355;28;20046;-72
2022/04/11 09:35:32;;;;;;;3.08;0.80;;;11.80;56.10;;;;;;5062035;28;20053;-73
2022/04/11 09:38:07;;;;;;;1.85;0.75;;;11.90;57.30;;;;;;5064715;28;20040;-73
2022/04/11 09:40:37;;;;;;;4.57;1.27;;;11.90;56.10;;;;;;5062463;28;20052;-72
2022/04/11 09:43:04;;;;;;;3.38;1.08;;;12.00;56.40;;;;;;5056707;28;20137;-72
2022/04/11 09:45:31;;;;;;;1.95;0.90;;;12.10;56.20;;;;;;5060942;28;20128;-73
2022/04/11 09:48:05;;;;;;;5.20;1.38;;;12.10;55.90;;;;;;5063832;28;20104;-72
2022/04/11 09:50:32;;;;;;;4.00;1.42;;;12.20;56.70;;;;;;5063843;28;20033;-73
2022/04/11 09:53:14;;;;;;;3.20;1.42;;;12.20;56.00;;;;;;5061237;28;20112;-72
2022/04/11 09:55:46;;;;;;;6.03;2.38;;;12.30;56.20;;;;;;5061393;28;20252;-72
2022/04/11 09:58:14;;;;;;;4.90;2.10;;;12.40;55.90;;;;;;5064968;28;20153;-73
2022/04/11 10:00:43;;;;;;;4.00;1.63;;;12.40;53.90;;;;;;5063165;28;20040;-72
2022/04/11 10:03:12;;;;;;;3.97;1.55;;;12.50;53.00;;;;;;5061064;28;20028;-72
2022/04/11 10:05:40;;;;;;;6.70;2.20;;;12.60;53.40;;;;;;5062989;28;20577;-73
2022/04/11 10:08:08;;;;;;;5.63;1.85;;;12.60;54.40;;;;;;5064526;28;20072;-72
2022/04/11 10:10:38;;;;;;;4.80;1.50;;;12.60;52.90;;;;;;5071051;28;20086;-72
2022/04/11 10:13:07;;;;;;;5.10;1.70;;;12.60;53.00;;;;;;5065382;28;20041;-73
2022/04/11 10:15:34;;;;;;;4.38;1.83;;;12.70;52.90;;;;;;5063022;28;20048;-73
2022/04/11 10:18:02;;;;;;;4.43;1.83;;;12.70;52.50;;;;;;5061322;28;20040;-72
2022/04/11 10:20:32;;;;;;;3.40;1.58;;;12.70;52.00;;;;;;5053658;28;20335;-73
2022/04/11 10:23:15;;;;;;;4.10;1.70;;;12.80;53.70;;;;;;5060397;28;20118;-71
2022/04/11 10:25:46;;;;;;;4.40;1.88;;;12.90;53.30;;;;;;5060790;28;20041;-72
2022/04/11 10:28:19;;;;;;;2.53;1.02;;;12.90;51.80;;;;;;5059418;28;20048;-74
2022/04/11 10:31:02;;;;;;;4.22;1.17;;;13.00;49.70;;;;;;5062040;28;20048;-72
2022/04/11 10:33:41;;;;;;;2.47;1.27;;;13.00;52.00;;;;;;5062980;28;20052;-71
2022/04/11 10:36:35;;;;;;;1.85;0.70;;;13.00;51.60;;;;;;5058637;28;20651;-73
2022/04/11 10:39:27;;;;;;;3.22;0.80;;;13.10;51.10;;;;;;5060862;28;20053;-73
2022/04/11 10:42:09;;;;;;;3.08;1.00;;;13.10;51.20;;;;;;5060374;28;20041;-73
2022/04/11 10:44:37;;;;;;;2.85;1.02;;;13.20;50.40;;;;;;5062706;28;20055;-75
2022/04/11 10:47:35;;;;;;;2.17;0.80;;;13.20;50.30;;;;;;5059908;28;20072;-74
2022/04/11 10:50:36;;;;;;;2.53;1.00;;;13.20;50.10;;;;;;5061483;28;20052;-73
2022/04/11 10:53:24;;;;;;;3.33;0.77;;;13.30;49.40;;;;;;5062345;28;20090;-73
2022/04/11 10:55:59;;;;;;;2.22;1.20;;;13.30;48.70;;;;;;5061858;28;20049;-73
2022/04/11 10:58:42;;;;;;;2.38;0.70;;;13.30;48.10;;;;;;5064320;28;20114;-73
2022/04/11 11:01:10;;;;;;;2.17;0.80;;;13.30;46.90;;;;;;5057691;28;20036;-73
2022/04/11 11:03:39;;;;;;;3.97;0.80;;;13.30;47.60;;;;;;5063295;28;20053;-73
2022/04/11 11:06:19;;;;;;;2.20;0.70;;;13.30;47.40;;;;;;5061949;28;20047;-73
2022/04/11 11:08:48;;;;;;;2.17;0.70;;;13.30;46.70;;;;;;5061585;28;20044;-74
2022/04/11 11:11:24;;;;;;;2.47;0.80;;;13.30;47.50;;;;;;5058684;28;20041;-75
2022/04/11 11:13:51;;;;;;;6.00;1.85;;;13.40;47.00;;;;;;5059774;28;20047;-75
2022/04/11 11:16:58;;;;;;;7.00;2.92;;;13.50;48.00;;;;;;5043788;28;20048;-74
2022/04/11 11:19:25;;;;;;;8.63;3.90;;;13.50;48.40;;;;;;5063055;28;20072;-73
2022/04/11 11:22:00;;;;;;;8.63;2.45;;;13.60;48.10;;;;;;5060908;28;20037;-73
2022/04/11 11:24:29;;;;;;;4.88;1.75;;;13.60;47.30;;;;;;5042966;28;20040;-72
2022/04/11 11:26:59;;;;;;;5.45;1.85;;;13.60;46.50;;;;;;5066292;28;20049;-74
2022/04/11 11:29:30;;;;;;;3.05;1.30;;;13.60;46.40;;;;;;5070959;28;20135;-74
2022/04/11 11:31:59;;;;;;;4.97;1.70;;;13.60;45.10;;;;;;5069712;28;20566;-74
2022/04/11 11:34:28;;;;;;;6.00;2.50;;;13.60;45.60;;;;;;5062059;28;20052;-73
2022/04/11 11:37:00;;;;;;;9.63;4.65;;;13.60;45.40;;;;;;5063393;28;20052;-73
2022/04/11 11:39:30;;;;;;;12.48;4.72;;;13.70;45.20;;;;;;5057698;28;20117;-73
2022/04/11 11:42:03;;;;;;;12.25;3.85;;;13.70;46.10;;;;;;5060105;28;20734;-72
2022/04/11 11:44:31;;;;;;;5.68;2.28;;;13.70;45.80;;;;;;5061229;28;20059;-75
2022/04/11 11:46:59;;;;;;;5.78;2.13;;;13.70;45.90;;;;;;5060259;28;20036;-71
2022/04/11 11:49:28;;;;;;;4.78;1.70;;;13.70;45.80;;;;;;5060907;28;20040;-72
2022/04/11 11:51:56;;;;;;;6.07;1.63;;;13.70;45.80;;;;;;5060279;28;20139;-76
2022/04/11 11:54:35;;;;;;;5.22;1.55;;;13.70;46.50;;;;;;5060365;28;20040;-73
2022/04/11 11:57:02;;;;;;;3.95;1.80;;;13.70;47.10;;;;;;5059798;28;20037;-74
2022/04/11 11:59:29;;;;;;;6.00;1.90;;;13.70;47.30;;;;;;5059058;28;20119;-74
2022/04/11 12:04:37;;;;;;;6.13;2.97;;;13.80;46.40;;;;;;5063175;28;20052;-75
2022/04/11 12:07:05;;;;;;;7.65;3.70;;;13.80;46.40;;;;;;5066117;28;20040;-75
2022/04/11 12:09:37;;;;;;;8.10;3.03;;;13.80;47.00;;;;;;5060888;28;20055;-74
2022/04/11 12:12:06;;;;;;;7.32;2.97;;;13.80;47.60;;;;;;5059085;28;20051;-72
2022/04/11 12:15:00;;;;;;;6.82;2.80;;;13.80;47.40;;;;;;5060774;28;20098;-74
2022/04/11 12:17:35;;;;;;;5.97;2.00;;;13.80;47.30;;;;;;5065653;28;20060;-71
2022/04/11 12:20:14;;;;;;;4.30;1.77;;;13.80;47.30;;;;;;5060611;28;20076;-74
2022/04/11 12:22:42;;;;;;;8.30;2.03;;;13.80;47.20;;;;;;5061509;28;20051;-74
2022/04/11 12:25:30;;;;;;;4.82;1.70;;;13.80;47.50;;;;;;5057832;28;20052;-72
2022/04/11 12:28:14;;;;;;;5.75;1.88;;;13.90;47.10;;;;;;5060931;28;20444;-71
2022/04/11 12:30:44;;;;;;;3.58;1.48;;;13.90;46.70;;;;;;5060527;28;20783;-72
2022/04/11 12:33:13;;;;;;;7.68;1.50;;;13.90;47.00;;;;;;5061998;28;20043;-72
2022/04/11 12:35:40;;;;;;;4.25;1.60;;;13.90;46.50;;;;;;5054020;28;20169;-72
2022/04/11 12:38:10;;;;;;;2.53;0.90;;;13.80;46.00;;;;;;5062545;28;20116;-74
2022/04/11 12:40:45;;;;;;;2.75;1.00;;;13.80;45.20;;;;;;5060483;28;20098;-73
2022/04/11 12:43:13;;;;;;;2.97;1.05;;;13.80;45.30;;;;;;5059582;28;20060;-73
2022/04/11 12:45:40;;;;;;;3.10;1.63;;;13.80;46.60;;;;;;5058408;28;20056;-73
2022/04/11 12:48:09;;;;;;;6.40;1.85;;;13.80;46.90;;;;;;5062894;28;20040;-72
2022/04/11 12:50:37;;;;;;;5.28;1.75;;;13.80;46.90;;;;;;5063858;28;20045;-72
2022/04/11 12:53:05;;;;;;;5.95;1.98;;;13.80;47.40;;;;;;5062769;28;20036;-73
2022/04/11 12:55:34;;;;;;;8.10;2.35;;;13.80;47.10;;;;;;5064801;28;20043;-73
2022/04/11 12:58:04;;;;;;;5.40;1.90;;;13.80;47.00;;;;;;5066981;28;20090;-74
2022/04/11 13:00:32;;;;;;;6.60;2.05;;;13.80;47.50;;;;;;5060428;28;20041;-73
2022/04/11 13:03:00;;;;;;;6.75;2.30;;;13.80;47.50;;;;;;5062332;28;20098;-74
2022/04/11 13:05:28;;;;;;;6.22;2.00;;;13.80;47.70;;;;;;5063250;28;20409;-74
2022/04/11 13:07:55;;;;;;;5.90;2.75;;;13.80;47.70;;;;;;5068781;28;20037;-74